Time;durP1;ratioP1;P1;durP2;ratioP2;P2;SDS_P1;SDS_P2;PMS_P1;PMS_P2;Temp;Humidity;BMP_temperature;BMP_pressure;BME280_temperature;BME280_humidity;BME280_pressure;Samples;Min_cycle;Max_cycle;Signal;HPM_P1;HPM_P2
2023/01/25 00:00:05;;;;;;;2.73;2.53;;;;;1.10;97391.00;;;;5054163;28;20253;-73
2023/01/25 00:02:33;;;;;;;3.00;2.80;;;;;1.10;97393.00;;;;5054050;28;20219;-73
2023/01/25 00:05:00;;;;;;;2.20;2.10;;;;;1.20;97399.00;;;;5054424;28;20249;-72
2023/01/25 00:07:27;;;;;;;5.93;3.73;;;;;1.20;97395.00;;;;5054085;28;20202;-72
2023/01/25 00:09:55;;;;;;;3.13;2.77;;;;;1.20;97390.00;;;;5053988;28;20661;-72
2023/01/25 00:12:24;;;;;;;2.53;2.33;;;;;1.20;97392.00;;;;5053909;28;20280;-73
2023/01/25 00:14:51;;;;;;;3.60;2.93;;;;;1.20;97380.00;;;;5053993;28;20249;-72
2023/01/25 00:17:18;;;;;;;8.17;4.30;;;;;1.20;97381.00;;;;5054355;28;20196;-72
2023/01/25 00:19:46;;;;;;;4.73;3.53;;;;;1.30;97374.00;;;;5053874;28;20192;-73
2023/01/25 00:22:13;;;;;;;3.37;3.17;;;;;1.20;97379.00;;;;5053720;28;20231;-72
2023/01/25 00:24:40;;;;;;;4.50;3.27;;;;;1.20;97376.00;;;;5053973;28;20191;-72
2023/01/25 00:27:08;;;;;;;3.50;2.83;;;;;1.20;97380.00;;;;5053721;28;20199;-73
2023/01/25 00:29:37;;;;;;;6.70;3.40;;;;;1.20;97375.00;;;;5054358;28;20237;-72
2023/01/25 00:32:33;;;;;;;3.83;2.77;;;;;1.20;97362.00;;;;5053565;28;20219;-72
2023/01/25 00:35:01;;;;;;;5.27;3.33;;;;;1.20;97365.00;;;;5053667;28;20187;-71
2023/01/25 00:37:36;;;;;;;2.07;1.97;;;;;1.20;97367.00;;;;5053516;28;20190;-72
2023/01/25 00:40:03;;;;;;;2.70;2.57;;;;;1.10;97358.00;;;;5053550;28;20241;-72
2023/01/25 00:42:31;;;;;;;3.60;3.40;;;;;1.10;97350.00;;;;5053352;28;20223;-71
2023/01/25 00:45:00;;;;;;;3.43;2.97;;;;;1.10;97349.00;;;;5053463;28;20195;-73
2023/01/25 00:47:27;;;;;;;5.47;4.53;;;;;1.10;97350.00;;;;5053889;28;20196;-72
2023/01/25 00:49:55;;;;;;;1.83;1.73;;;;;1.20;97358.00;;;;5053374;28;20732;-73
2023/01/25 00:52:22;;;;;;;3.67;3.33;;;;;1.10;97358.00;;;;5035364;28;20218;-71
2023/01/25 00:54:49;;;;;;;2.57;1.97;;;;;1.10;97346.00;;;;5053238;28;20234;-72
2023/01/25 00:57:17;;;;;;;2.97;2.73;;;;;1.20;97357.00;;;;5053493;28;20656;-73
2023/01/25 00:59:46;;;;;;;2.17;2.07;;;;;1.20;97350.00;;;;5053186;28;20199;-72
2023/01/25 01:02:15;;;;;;;7.43;3.50;;;;;1.20;97356.00;;;;5052638;28;20694;-71
2023/01/25 01:04:42;;;;;;;2.37;2.27;;;;;1.20;97364.00;;;;5053170;28;20262;-72
2023/01/25 01:07:11;;;;;;;3.47;3.20;;;;;1.20;97374.00;;;;5053350;28;20250;-72
2023/01/25 01:09:39;;;;;;;3.63;3.33;;;;;1.20;97363.00;;;;5053110;28;20254;-72
2023/01/25 01:12:06;;;;;;;3.37;2.97;;;;;1.20;97359.00;;;;5053279;28;20706;-73
2023/01/25 01:14:34;;;;;;;6.73;3.73;;;;;1.20;97355.00;;;;5054094;28;20218;-72
2023/01/25 01:17:01;;;;;;;3.00;2.80;;;;;1.20;97346.00;;;;5053579;28;20238;-72
2023/01/25 01:19:30;;;;;;;2.77;2.57;;;;;1.20;97341.00;;;;5053287;28;20194;-73
2023/01/25 01:21:58;;;;;;;2.67;2.47;;;;;1.20;97340.00;;;;5053222;28;20222;-73
2023/01/25 01:24:25;;;;;;;6.03;3.00;;;;;1.20;97343.00;;;;5052924;28;20222;-73
2023/01/25 01:26:52;;;;;;;3.53;3.23;;;;;1.20;97346.00;;;;5052847;28;20199;-73
2023/01/25 01:29:20;;;;;;;5.13;3.87;;;;;1.20;97346.00;;;;5052936;28;20195;-73
2023/01/25 01:31:51;;;;;;;3.87;3.53;;;;;1.20;97347.00;;;;5052778;28;20695;-72
2023/01/25 01:34:19;;;;;;;2.63;2.43;;;;;1.20;97354.00;;;;5053049;28;20230;-73
2023/01/25 01:36:47;;;;;;;3.60;3.37;;;;;1.20;97354.00;;;;5053067;28;20221;-73
2023/01/25 01:39:15;;;;;;;3.80;2.83;;;;;1.20;97347.00;;;;5052787;28;20200;-73
2023/01/25 01:41:42;;;;;;;2.97;2.43;;;;;1.20;97345.00;;;;5052872;28;20219;-72
2023/01/25 01:44:16;;;;;;;2.53;2.37;;;;;1.20;97352.00;;;;5053154;28;20710;-72
2023/01/25 01:46:48;;;;;;;3.77;3.33;;;;;1.20;97349.00;;;;5053311;28;20183;-73
2023/01/25 01:49:19;;;;;;;5.27;3.87;;;;;1.20;97351.00;;;;5052994;28;20184;-72
2023/01/25 01:51:50;;;;;;;3.03;2.83;;;;;1.20;97342.00;;;;5052806;28;20215;-72
2023/01/25 01:54:23;;;;;;;3.27;2.97;;;;;1.20;97350.00;;;;5052736;28;20201;-73
2023/01/25 01:56:55;;;;;;;3.00;2.80;;;;;1.20;97345.00;;;;5054270;28;20191;-72
2023/01/25 01:59:27;;;;;;;3.40;3.03;;;;;1.20;97342.00;;;;5053446;28;20274;-73
2023/01/25 02:01:56;;;;;;;3.30;3.10;;;;;1.20;97349.00;;;;5054393;28;20269;-72
2023/01/25 02:04:25;;;;;;;3.70;3.40;;;;;1.20;97340.00;;;;5054520;28;20191;-72
2023/01/25 02:07:00;;;;;;;4.40;3.50;;;;;1.20;97344.00;;;;5061386;28;20206;-72
2023/01/25 02:09:29;;;;;;;3.27;2.87;;;;;1.20;97341.00;;;;5042368;28;20712;-72
2023/01/25 02:11:58;;;;;;;3.67;3.37;;;;;1.20;97341.00;;;;5060129;28;20278;-72
2023/01/25 02:14:27;;;;;;;3.07;2.77;;;;;1.20;97338.00;;;;5062306;28;20219;-72
2023/01/25 02:16:55;;;;;;;4.63;3.70;;;;;1.30;97339.00;;;;5061859;28;20256;-73
2023/01/25 02:19:34;;;;;;;3.03;2.83;;;;;1.30;97331.00;;;;5062557;28;20553;-72
2023/01/25 02:22:09;;;;;;;4.40;3.10;;;;;1.20;97329.00;;;;5064925;28;20226;-72
2023/01/25 02:24:39;;;;;;;2.53;2.33;;;;;1.20;97338.00;;;;5063981;28;20678;-72
2023/01/25 02:27:07;;;;;;;4.57;2.90;;;;;1.20;97339.00;;;;5062365;28;20246;-73
2023/01/25 02:29:36;;;;;;;3.27;2.83;;;;;1.20;97332.00;;;;5063139;28;20222;-72
2023/01/25 02:32:05;;;;;;;4.10;3.60;;;;;1.20;97317.00;;;;5060961;28;20212;-73
2023/01/25 02:34:34;;;;;;;4.73;3.77;;;;;1.20;97321.00;;;;5063534;28;20218;-72
2023/01/25 02:37:02;;;;;;;3.60;3.40;;;;;1.20;97322.00;;;;5045748;28;20689;-73
2023/01/25 02:39:30;;;;;;;4.57;3.50;;;;;1.20;97328.00;;;;5065420;28;20199;-72
2023/01/25 02:41:57;;;;;;;3.23;2.47;;;;;1.20;97326.00;;;;5063548;28;20250;-73
2023/01/25 02:44:29;;;;;;;2.90;2.23;;;;;1.10;97327.00;;;;5063537;28;20192;-74
2023/01/25 02:46:57;;;;;;;3.40;3.10;;;;;1.20;97317.00;;;;5064381;28;20217;-72
2023/01/25 02:49:24;;;;;;;4.37;3.97;;;;;1.20;97320.00;;;;5063389;28;20719;-72
2023/01/25 02:51:56;;;;;;;3.47;3.07;;;;;1.20;97325.00;;;;5063866;28;20218;-72
2023/01/25 02:54:24;;;;;;;4.30;3.63;;;;;1.10;97333.00;;;;5059747;28;20224;-72
2023/01/25 02:56:52;;;;;;;6.40;3.03;;;;;1.10;97312.00;;;;5042814;28;20670;-72
2023/01/25 02:59:19;;;;;;;3.53;3.20;;;;;1.20;97325.00;;;;5059652;28;20206;-72
2023/01/25 03:01:49;;;;;;;2.73;2.47;;;;;1.20;97323.00;;;;5043515;28;20229;-72
2023/01/25 03:04:16;;;;;;;3.33;3.03;;;;;1.20;97322.00;;;;5062885;28;20226;-72
2023/01/25 03:06:44;;;;;;;3.13;2.47;;;;;1.10;97316.00;;;;5044408;28;20221;-72
2023/01/25 03:09:12;;;;;;;3.37;3.10;;;;;1.10;97317.00;;;;5062784;28;20193;-72
2023/01/25 03:11:39;;;;;;;6.40;4.27;;;;;1.10;97309.00;;;;5063130;28;20214;-72
2023/01/25 03:14:07;;;;;;;3.53;3.20;;;;;1.10;97305.00;;;;5062315;28;20682;-72
2023/01/25 03:16:34;;;;;;;2.77;2.53;;;;;1.20;97297.00;;;;5063485;28;20257;-72
2023/01/25 03:19:03;;;;;;;6.03;2.10;;;;;1.20;97290.00;;;;5062643;28;20210;-72
2023/01/25 03:21:30;;;;;;;6.37;3.10;;;;;1.20;97291.00;;;;5061819;28;20212;-73
2023/01/25 03:24:00;;;;;;;11.10;2.30;;;;;1.20;97289.00;;;;5063499;28;20235;-72
2023/01/25 03:26:29;;;;;;;3.70;3.17;;;;;1.20;97288.00;;;;5062070;28;20198;-72
2023/01/25 03:28:57;;;;;;;3.27;2.97;;;;;1.10;97289.00;;;;5061586;28;20191;-72
2023/01/25 03:31:24;;;;;;;2.20;2.10;;;;;1.20;97295.00;;;;5061433;28;20195;-71
2023/01/25 03:33:52;;;;;;;2.97;2.77;;;;;1.10;97278.00;;;;5061624;28;20291;-72
2023/01/25 03:36:20;;;;;;;5.57;2.73;;;;;1.10;97294.00;;;;5063843;28;20222;-72
2023/01/25 03:38:48;;;;;;;4.97;4.57;;;;;1.20;97291.00;;;;5061990;28;20199;-72
2023/01/25 03:41:15;;;;;;;5.53;2.90;;;;;1.20;97283.00;;;;5063533;28;20657;-71
2023/01/25 03:43:42;;;;;;;4.43;2.13;;;;;1.20;97288.00;;;;5062730;28;20195;-73
2023/01/25 03:46:10;;;;;;;3.23;3.03;;;;;1.20;97290.00;;;;5063357;28;20251;-73
2023/01/25 03:48:37;;;;;;;2.23;2.13;;;;;1.20;97277.00;;;;5061182;28;20198;-73
2023/01/25 03:51:05;;;;;;;3.73;2.80;;;;;1.20;97278.00;;;;5061910;28;20608;-73
2023/01/25 03:53:33;;;;;;;3.17;2.73;;;;;1.20;97281.00;;;;5060755;28;20631;-73
2023/01/25 03:56:03;;;;;;;3.23;3.03;;;;;1.20;97278.00;;;;5061470;28;20200;-73
2023/01/25 03:58:31;;;;;;;2.47;2.03;;;;;1.20;97286.00;;;;5059589;28;20228;-72
2023/01/25 04:01:01;;;;;;;2.37;2.27;;;;;1.20;97277.00;;;;5059367;28;20220;-72
2023/01/25 04:03:29;;;;;;;1.70;1.60;;;;;1.20;97270.00;;;;5059100;28;20270;-72
2023/01/25 04:05:57;;;;;;;2.37;2.17;;;;;1.20;97283.00;;;;5062188;28;20261;-72
2023/01/25 04:08:25;;;;;;;5.23;2.80;;;;;1.20;97274.00;;;;5063715;28;20203;-73
2023/01/25 04:10:55;;;;;;;2.73;2.53;;;;;1.30;97284.00;;;;5062192;28;20207;-72
2023/01/25 04:13:24;;;;;;;2.17;1.97;;;;;1.30;97285.00;;;;5062567;28;20224;-72
2023/01/25 04:15:51;;;;;;;3.17;2.97;;;;;1.30;97277.00;;;;5062197;28;20215;-72
2023/01/25 04:18:19;;;;;;;5.47;2.83;;;;;1.30;97284.00;;;;5061285;28;20199;-73
2023/01/25 04:20:51;;;;;;;3.90;2.83;;;;;1.20;97282.00;;;;5061535;28;20195;-72
2023/01/25 04:23:19;;;;;;;4.03;3.73;;;;;1.20;97271.00;;;;5062824;28;20304;-72
2023/01/25 04:25:54;;;;;;;3.10;2.90;;;;;1.20;97267.00;;;;5062335;28;20192;-72
2023/01/25 04:28:22;;;;;;;3.50;3.20;;;;;1.20;97265.00;;;;5060979;28;20186;-72
2023/01/25 04:30:49;;;;;;;16.23;2.33;;;;;1.20;97268.00;;;;5063222;28;20187;-73
2023/01/25 04:33:17;;;;;;;1.90;1.80;;;;;1.20;97269.00;;;;5059505;28;20222;-73
2023/01/25 04:35:45;;;;;;;4.93;3.23;;;;;1.20;97273.00;;;;5061894;28;20265;-72
2023/01/25 04:38:13;;;;;;;3.33;3.03;;;;;1.20;97264.00;;;;5065868;28;20272;-72
2023/01/25 04:40:40;;;;;;;2.90;2.70;;;;;1.20;97265.00;;;;5068490;28;20233;-72
2023/01/25 04:43:10;;;;;;;5.10;3.33;;;;;1.20;97267.00;;;;5065581;28;20222;-72
2023/01/25 04:45:38;;;;;;;2.93;2.20;;;;;1.20;97259.00;;;;5068829;28;20233;-72
2023/01/25 04:48:09;;;;;;;2.23;2.13;;;;;1.20;97267.00;;;;5067179;28;20228;-72
2023/01/25 04:50:37;;;;;;;2.57;2.37;;;;;1.20;97257.00;;;;5061137;28;20191;-72
2023/01/25 04:53:04;;;;;;;2.67;2.47;;;;;1.20;97261.00;;;;5060101;28;20219;-72
2023/01/25 04:55:32;;;;;;;1.47;1.37;;;;;1.20;97267.00;;;;5056796;28;20754;-72
2023/01/25 04:57:59;;;;;;;2.10;1.90;;;;;1.20;97267.00;;;;5056511;28;20200;-72
2023/01/25 05:00:29;;;;;;;3.17;2.83;;;;;1.30;97261.00;;;;5055690;28;20194;-72
2023/01/25 05:02:56;;;;;;;4.23;3.93;;;;;1.20;97263.00;;;;5055112;28;20219;-72
2023/01/25 05:05:24;;;;;;;5.27;3.17;;;;;1.20;97262.00;;;;5055140;28;20192;-72
2023/01/25 05:07:51;;;;;;;3.47;3.17;;;;;1.20;97257.00;;;;5056041;28;20203;-72
2023/01/25 05:10:19;;;;;;;3.70;3.40;;;;;1.20;97244.00;;;;5036315;28;20203;-72
2023/01/25 05:12:46;;;;;;;2.13;1.93;;;;;1.20;97255.00;;;;5054879;28;20211;-72
2023/01/25 05:15:14;;;;;;;4.00;2.67;;;;;1.20;97244.00;;;;5055366;28;20233;-72
2023/01/25 05:17:43;;;;;;;3.13;2.90;;;;;1.20;97242.00;;;;5054116;28;20203;-73
2023/01/25 05:20:12;;;;;;;3.20;3.00;;;;;1.20;97248.00;;;;5053276;28;20206;-73
2023/01/25 05:22:39;;;;;;;5.83;3.77;;;;;1.20;97237.00;;;;5053172;28;20689;-74
2023/01/25 05:26:59;;;;;;;3.83;3.03;;;;;1.20;97244.00;;;;5053154;28;20190;-73
2023/01/25 05:27:54;;;;;;;2.57;2.37;;;;;1.10;97243.00;;;;5054323;28;20642;-73
2023/01/25 05:30:22;;;;;;;3.37;2.90;;;;;1.20;97239.00;;;;5055825;28;20282;-74
2023/01/25 05:32:51;;;;;;;1.63;1.53;;;;;1.50;97246.00;;;;5054793;28;20223;-73
2023/01/25 05:35:18;;;;;;;3.63;3.33;;;;;1.90;97256.00;;;;5054096;28;20567;-72
2023/01/25 05:37:46;;;;;;;3.97;3.53;;;;;2.00;97253.00;;;;5053523;28;20249;-72
2023/01/25 05:40:13;;;;;;;2.83;2.63;;;;;2.10;97254.00;;;;5054055;28;20239;-72
2023/01/25 05:42:41;;;;;;;3.77;3.10;;;;;2.10;97258.00;;;;5053571;28;20289;-72
2023/01/25 05:45:10;;;;;;;2.40;2.13;;;;;1.90;97262.00;;;;5053992;28;20280;-72
2023/01/25 05:47:37;;;;;;;2.07;1.97;;;;;1.70;97254.00;;;;5053766;28;20195;-73
2023/01/25 05:50:07;;;;;;;2.30;2.10;;;;;1.70;97243.00;;;;5057382;28;20198;-73
2023/01/25 05:52:35;;;;;;;2.97;2.77;;;;;1.60;97240.00;;;;5057084;28;20238;-72
2023/01/25 05:55:02;;;;;;;2.50;2.30;;;;;1.50;97252.00;;;;5057176;28;20226;-72
2023/01/25 05:57:29;;;;;;;8.77;2.87;;;;;1.50;97253.00;;;;5056795;28;20199;-73
2023/01/25 05:59:57;;;;;;;2.60;2.40;;;;;1.50;97240.00;;;;5056764;28;20200;-73
2023/01/25 06:02:24;;;;;;;7.30;2.30;;;;;1.40;97244.00;;;;5056905;28;20219;-73
2023/01/25 06:04:52;;;;;;;6.67;3.27;;;;;1.30;97241.00;;;;5056328;28;20192;-73
2023/01/25 06:07:20;;;;;;;3.37;2.40;;;;;1.30;97242.00;;;;5056378;28;20204;-73
2023/01/25 06:09:48;;;;;;;2.47;2.27;;;;;1.30;97244.00;;;;5056699;28;20606;-73
2023/01/25 06:12:15;;;;;;;4.40;3.20;;;;;1.30;97237.00;;;;5056714;28;20359;-73
2023/01/25 06:14:43;;;;;;;3.03;2.70;;;;;1.30;97233.00;;;;5056508;28;20283;-73
2023/01/25 06:17:11;;;;;;;5.13;2.97;;;;;1.40;97230.00;;;;5056493;28;20202;-75
2023/01/25 06:19:38;;;;;;;5.10;4.60;;;;;1.40;97232.00;;;;5056346;28;20249;-72
2023/01/25 06:22:08;;;;;;;2.53;2.37;;;;;1.40;97233.00;;;;5056854;28;20228;-72
2023/01/25 06:24:36;;;;;;;1.37;1.33;;;;;1.40;97221.00;;;;5056811;28;20202;-73
2023/01/25 06:27:04;;;;;;;4.10;1.97;;;;;1.30;97228.00;;;;5056477;28;20210;-71
2023/01/25 06:29:31;;;;;;;3.37;3.17;;;;;1.20;97237.00;;;;5056500;28;20198;-72
2023/01/25 06:31:59;;;;;;;7.67;2.07;;;;;1.20;97226.00;;;;5056315;28;20609;-72
2023/01/25 06:34:26;;;;;;;3.20;2.90;;;;;1.20;97228.00;;;;5055895;28;20257;-72
2023/01/25 06:36:53;;;;;;;2.40;2.20;;;;;1.30;97223.00;;;;5055788;28;20238;-72
2023/01/25 06:39:21;;;;;;;3.70;3.17;;;;;1.30;97225.00;;;;5055775;28;20205;-73
2023/01/25 06:41:49;;;;;;;2.50;2.30;;;;;1.30;97219.00;;;;5055651;28;20226;-72
2023/01/25 06:44:17;;;;;;;3.87;3.33;;;;;1.20;97223.00;;;;5055847;28;20199;-73
2023/01/25 06:46:44;;;;;;;2.73;2.53;;;;;1.20;97217.00;;;;5055721;28;20324;-73
2023/01/25 06:49:12;;;;;;;4.50;2.80;;;;;1.20;97213.00;;;;5037768;28;20203;-73
2023/01/25 06:51:39;;;;;;;1.90;1.80;;;;;1.40;97204.00;;;;5055542;28;20210;-72
2023/01/25 06:54:07;;;;;;;4.60;3.17;;;;;1.30;97212.00;;;;5055714;28;20730;-72
2023/01/25 06:56:34;;;;;;;6.20;3.20;;;;;1.30;97213.00;;;;5055493;28;20241;-73
2023/01/25 06:59:03;;;;;;;2.57;2.43;;;;;1.30;97211.00;;;;5055532;28;20199;-73
2023/01/25 07:01:30;;;;;;;2.97;2.77;;;;;1.30;97230.00;;;;5054761;28;20691;-72
2023/01/25 07:03:59;;;;;;;3.30;2.93;;;;;1.30;97216.00;;;;5055305;28;20200;-72
2023/01/25 07:06:31;;;;;;;4.93;2.30;;;;;1.20;97213.00;;;;5055322;28;20203;-71
2023/01/25 07:09:03;;;;;;;2.20;2.10;;;;;1.20;97209.00;;;;5055650;28;20625;-73
2023/01/25 07:11:30;;;;;;;3.07;2.77;;;;;1.20;97211.00;;;;5055292;28;20305;-72
2023/01/25 07:13:59;;;;;;;3.00;2.80;;;;;1.10;97201.00;;;;5055142;28;20662;-72
2023/01/25 07:16:28;;;;;;;2.60;2.50;;;;;1.00;97201.00;;;;5055014;28;20319;-72
2023/01/25 07:18:55;;;;;;;5.17;3.80;;;;;1.10;97197.00;;;;5055198;28;20195;-72
2023/01/25 07:21:23;;;;;;;3.40;2.07;;;;;1.10;97198.00;;;;5054956;28;20246;-71
2023/01/25 07:23:52;;;;;;;4.63;4.20;;;;;1.10;97201.00;;;;5055042;28;20233;-72
2023/01/25 07:26:21;;;;;;;3.57;3.27;;;;;1.10;97197.00;;;;5055183;28;20203;-72
2023/01/25 07:28:49;;;;;;;3.97;3.50;;;;;1.20;97189.00;;;;5055320;28;20539;-72
2023/01/25 07:31:18;;;;;;;2.20;2.10;;;;;1.30;97187.00;;;;5055669;28;20199;-72
2023/01/25 07:33:49;;;;;;;4.20;3.80;;;;;1.20;97191.00;;;;5054873;28;20199;-72
2023/01/25 07:36:17;;;;;;;2.50;2.37;;;;;1.20;97195.00;;;;5055050;28;20203;-72
2023/01/25 07:38:44;;;;;;;2.33;2.23;;;;;1.30;97190.00;;;;5055042;28;20199;-73
2023/01/25 07:41:13;;;;;;;3.17;2.73;;;;;1.20;97196.00;;;;5054579;28;20195;-73
2023/01/25 07:43:40;;;;;;;2.93;2.40;;;;;1.30;97198.00;;;;5054732;28;20287;-72
2023/01/25 07:46:10;;;;;;;2.27;2.17;;;;;1.30;97191.00;;;;5054527;28;20190;-72
2023/01/25 07:48:38;;;;;;;2.63;2.43;;;;;1.30;97184.00;;;;5055092;28;20687;-72
2023/01/25 07:51:11;;;;;;;2.83;2.63;;;;;1.30;97188.00;;;;5054784;28;20240;-72
2023/01/25 07:53:39;;;;;;;2.73;2.53;;;;;1.30;97183.00;;;;5054565;28;20194;-73
2023/01/25 07:56:07;;;;;;;3.07;2.83;;;;;1.20;97186.00;;;;5054656;28;20218;-73
2023/01/25 07:58:34;;;;;;;5.17;3.77;;;;;1.30;97190.00;;;;5036427;28;20222;-73
2023/01/25 08:01:13;;;;;;;10.07;2.97;;;;;1.20;97187.00;;;;5054400;28;20202;-72
2023/01/25 08:03:42;;;;;;;2.13;2.03;;;;;1.40;97182.00;;;;5054975;28;20172;-73
2023/01/25 08:06:11;;;;;;;2.80;2.57;;;;;1.40;97177.00;;;;5054168;28;20192;-72
2023/01/25 08:08:41;;;;;;;2.60;2.40;;;;;1.30;97180.00;;;;5054275;28;20253;-73
2023/01/25 08:11:12;;;;;;;3.77;2.37;;;;;1.30;97180.00;;;;5035799;28;20249;-71
2023/01/25 08:13:40;;;;;;;4.03;3.70;;;;;1.40;97183.00;;;;5054074;28;20183;-73
2023/01/25 08:16:08;;;;;;;3.70;3.40;;;;;1.50;97180.00;;;;5054160;28;20213;-72
2023/01/25 08:18:36;;;;;;;3.03;2.83;;;;;1.50;97174.00;;;;5053944;28;20191;-73
2023/01/25 08:21:03;;;;;;;4.97;3.17;;;;;1.50;97188.00;;;;5053917;28;20249;-72
2023/01/25 08:23:32;;;;;;;2.93;2.73;;;;;1.50;97185.00;;;;5063516;22;20239;-58
2023/01/25 08:26:02;;;;;;;4.50;4.10;;;;;1.50;97183.00;;;;5034128;28;20200;-57
2023/01/25 08:28:30;;;;;;;1.50;1.43;;;;;1.60;97181.00;;;;5033846;28;20274;-58
2023/01/25 08:31:06;;;;;;;2.43;2.23;;;;;1.70;97182.00;;;;5033745;28;20195;-57
2023/01/25 08:33:34;;;;;;;3.43;3.23;;;;;1.60;97192.00;;;;5033967;28;20226;-58
2023/01/25 08:36:02;;;;;;;2.90;2.70;;;;;1.60;97195.00;;;;5033775;28;20220;-58
2023/01/25 08:38:30;;;;;;;2.70;2.50;;;;;1.50;97190.00;;;;5033639;28;20199;-58
2023/01/25 08:41:05;;;;;;;2.30;2.20;;;;;1.50;97193.00;;;;5015830;28;20207;-58
2023/01/25 08:43:33;;;;;;;3.07;2.77;;;;;1.50;97189.00;;;;5034053;28;20258;-58
2023/01/25 08:46:01;;;;;;;2.10;2.00;;;;;1.60;97176.00;;;;5015745;28;20206;-58
2023/01/25 08:48:28;;;;;;;5.70;2.50;;;;;1.40;97177.00;;;;5033452;28;20200;-57
2023/01/25 08:50:56;;;;;;;2.83;2.63;;;;;1.50;97173.00;;;;5033651;28;20679;-58
2023/01/25 08:53:23;;;;;;;1.87;1.77;;;;;1.50;97175.00;;;;5033322;28;20649;-58
2023/01/25 08:55:52;;;;;;;2.50;2.37;;;;;1.60;97173.00;;;;5029645;28;20307;-60
2023/01/25 08:58:21;;;;;;;3.70;3.40;;;;;1.60;97167.00;;;;5029730;28;20223;-59
2023/01/25 09:00:49;;;;;;;3.37;3.10;;;;;1.50;97162.00;;;;5030259;28;20280;-58
2023/01/25 09:03:17;;;;;;;8.40;4.70;;;;;1.50;97174.00;;;;5029742;28;20631;-58
2023/01/25 09:05:44;;;;;;;1.67;1.57;;;;;1.50;97163.00;;;;5031230;28;20279;-58
2023/01/25 09:08:12;;;;;;;2.00;1.90;;;;;1.50;97164.00;;;;5030774;28;20667;-58
2023/01/25 09:10:39;;;;;;;3.43;3.20;;;;;1.40;97165.00;;;;5031391;28;20208;-58
2023/01/25 09:13:08;;;;;;;3.57;3.27;;;;;1.70;97162.00;;;;5013394;28;20614;-58
2023/01/25 09:15:35;;;;;;;4.63;3.03;;;;;1.60;97160.00;;;;5031080;28;20290;-57
2023/01/25 09:18:03;;;;;;;2.07;1.97;;;;;1.60;97157.00;;;;5030472;28;20681;-58
2023/01/25 09:20:30;;;;;;;2.43;2.23;;;;;1.70;97141.00;;;;5031084;28;20205;-57
2023/01/25 09:22:58;;;;;;;2.67;2.57;;;;;1.60;97144.00;;;;5030276;28;20214;-58
2023/01/25 09:25:25;;;;;;;2.43;2.33;;;;;1.60;97144.00;;;;5013277;28;20240;-59
2023/01/25 09:27:53;;;;;;;3.50;2.80;;;;;1.60;97142.00;;;;5013233;28;20214;-58
2023/01/25 09:30:22;;;;;;;1.90;1.80;;;;;1.70;97145.00;;;;5031219;28;20201;-58
2023/01/25 09:32:50;;;;;;;3.60;2.40;;;;;1.70;97146.00;;;;5031533;28;20209;-58
2023/01/25 09:35:17;;;;;;;2.73;2.63;;;;;1.60;97142.00;;;;5013187;28;20203;-58
2023/01/25 09:37:45;;;;;;;2.90;2.70;;;;;1.50;97147.00;;;;5031065;28;20200;-58
2023/01/25 09:40:21;;;;;;;4.70;3.67;;;;;1.70;97146.00;;;;5030260;28;20199;-58
2023/01/25 09:43:02;;;;;;;2.90;2.70;;;;;1.70;97139.00;;;;5029869;28;20270;-58
2023/01/25 09:45:33;;;;;;;2.27;2.07;;;;;1.80;97135.00;;;;5029419;28;20192;-57
2023/01/25 09:48:10;;;;;;;2.70;2.50;;;;;1.70;97135.00;;;;5030248;28;20204;-58
2023/01/25 09:50:46;;;;;;;1.97;1.87;;;;;1.70;97151.00;;;;5026476;28;20186;-60
2023/01/25 09:53:30;;;;;;;2.27;2.07;;;;;1.80;97153.00;;;;5030398;28;20251;-57
2023/01/25 09:56:02;;;;;;;2.37;2.27;;;;;1.80;97159.00;;;;5030202;28;20680;-58
2023/01/25 09:58:33;;;;;;;2.70;2.50;;;;;1.70;97148.00;;;;5031016;28;20200;-57
2023/01/25 10:01:17;;;;;;;3.80;3.50;;;;;1.70;97155.00;;;;5026307;28;20196;-58
2023/01/25 10:03:52;;;;;;;2.37;2.17;;;;;1.80;97154.00;;;;5030726;28;20228;-58
2023/01/25 10:06:23;;;;;;;5.80;1.57;;;;;1.70;97146.00;;;;5030740;28;20181;-58
2023/01/25 10:08:57;;;;;;;3.43;2.33;;;;;1.60;97150.00;;;;5030279;28;20201;-59
2023/01/25 10:11:27;;;;;;;3.97;3.67;;;;;1.60;97149.00;;;;5012602;28;20194;-58
2023/01/25 10:13:56;;;;;;;4.07;3.70;;;;;1.70;97146.00;;;;5031148;28;20231;-58
2023/01/25 10:16:30;;;;;;;4.80;3.27;;;;;1.80;97140.00;;;;5030440;28;20219;-58
2023/01/25 10:19:07;;;;;;;1.27;1.27;;;;;1.80;97142.00;;;;5030523;28;20203;-58
2023/01/25 10:21:38;;;;;;;2.30;2.10;;;;;1.80;97141.00;;;;5012742;28;20738;-58
2023/01/25 10:24:53;;;;;;;2.57;2.23;;;;;1.80;97134.00;;;;5012639;28;20711;-58
2023/01/25 10:27:29;;;;;;;2.00;1.90;;;;;1.80;97134.00;;;;5031042;28;20255;-59
2023/01/25 10:29:59;;;;;;;3.00;2.67;;;;;1.90;97137.00;;;;5030906;28;20191;-58
2023/01/25 10:32:31;;;;;;;1.93;1.83;;;;;1.80;97137.00;;;;5029989;28;20207;-58
2023/01/25 10:35:10;;;;;;;2.63;2.43;;;;;1.80;97132.00;;;;5032630;28;20224;-58
2023/01/25 10:37:38;;;;;;;2.77;2.20;;;;;1.70;97120.00;;;;5033966;28;20310;-58
2023/01/25 10:40:15;;;;;;;3.23;2.93;;;;;1.80;97123.00;;;;5032868;28;20719;-58
2023/01/25 10:42:48;;;;;;;4.33;3.90;;;;;1.60;97116.00;;;;5033021;28;20227;-58
2023/01/25 10:45:17;;;;;;;2.23;2.03;;;;;1.70;97117.00;;;;5033414;28;20212;-58
2023/01/25 10:47:50;;;;;;;2.73;2.53;;;;;1.70;97115.00;;;;5015331;28;20210;-58
2023/01/25 10:50:43;;;;;;;1.63;1.53;;;;;1.70;97101.00;;;;5033822;28;20246;-58
2023/01/25 10:53:23;;;;;;;4.13;2.93;;;;;1.70;97100.00;;;;5033906;28;20714;-58
2023/01/25 10:56:00;;;;;;;1.63;1.50;;;;;1.80;97108.00;;;;5033646;28;20198;-58
2023/01/25 10:58:36;;;;;;;2.10;1.90;;;;;1.70;97101.00;;;;5033596;28;20191;-58
2023/01/25 11:01:06;;;;;;;2.80;2.13;;;;;1.80;97095.00;;;;5033495;28;20743;-58
2023/01/25 11:03:38;;;;;;;3.60;3.13;;;;;1.60;97100.00;;;;5032752;28;20238;-58
2023/01/25 11:06:07;;;;;;;2.60;2.40;;;;;1.50;97094.00;;;;5032795;28;20214;-58
2023/01/25 11:08:36;;;;;;;1.73;1.63;;;;;1.60;97095.00;;;;5033722;28;20294;-58
2023/01/25 11:11:24;;;;;;;2.27;2.17;;;;;1.60;97100.00;;;;5033087;28;20204;-58
2023/01/25 11:13:54;;;;;;;1.50;1.40;;;;;1.70;97080.00;;;;5033431;28;20277;-58
2023/01/25 11:16:29;;;;;;;3.07;2.87;;;;;1.80;97092.00;;;;5033327;28;20295;-58
2023/01/25 11:18:59;;;;;;;2.30;2.07;;;;;1.80;97073.00;;;;5027608;28;20195;-58
2023/01/25 11:21:28;;;;;;;2.37;2.17;;;;;1.80;97074.00;;;;5033108;28;20191;-57
2023/01/25 11:24:14;;;;;;;4.00;2.70;;;;;1.70;97076.00;;;;5032611;28;20694;-58
2023/01/25 11:26:42;;;;;;;2.80;2.60;;;;;1.80;97074.00;;;;5032726;28;20211;-57
2023/01/25 11:29:15;;;;;;;1.30;1.30;;;;;1.80;97082.00;;;;5033100;28;20230;-58
2023/01/25 11:31:45;;;;;;;3.53;2.40;;;;;1.80;97075.00;;;;5033196;28;20192;-58
2023/01/25 11:34:16;;;;;;;2.77;2.47;;;;;1.70;97070.00;;;;5032968;28;20247;-57
2023/01/25 11:37:11;;;;;;;2.23;2.13;;;;;1.70;97068.00;;;;5029528;28;20215;-59
2023/01/25 11:39:51;;;;;;;2.60;2.07;;;;;1.70;97060.00;;;;5026365;28;20268;-59
2023/01/25 11:42:28;;;;;;;2.43;2.20;;;;;1.60;97054.00;;;;5030793;28;20224;-59
2023/01/25 11:45:24;;;;;;;3.37;2.37;;;;;1.60;97055.00;;;;5032763;28;20251;-59
2023/01/25 11:48:05;;;;;;;2.20;2.07;;;;;1.60;97056.00;;;;5032963;28;20202;-57
2023/01/25 11:50:38;;;;;;;2.37;2.20;;;;;1.60;97050.00;;;;5014990;28;20244;-57
2023/01/25 11:53:39;;;;;;;2.37;1.87;;;;;1.60;97042.00;;;;5014903;28;20200;-57
2023/01/25 11:56:15;;;;;;;2.43;1.80;;;;;1.60;97041.00;;;;5013651;28;20211;-57
2023/01/25 11:58:56;;;;;;;1.57;1.47;;;;;1.60;97037.00;;;;5015379;28;20294;-57
2023/01/25 12:01:33;;;;;;;2.80;2.60;;;;;1.50;97030.00;;;;5029465;28;20192;-57
2023/01/25 12:04:39;;;;;;;1.97;1.83;;;;;1.50;97028.00;;;;5033089;28;20258;-57
2023/01/25 12:07:16;;;;;;;1.73;1.63;;;;;1.50;97024.00;;;;5032324;28;20199;-58
2023/01/25 12:09:57;;;;;;;2.63;2.07;;;;;1.50;97014.00;;;;5032652;28;20200;-59
2023/01/25 12:12:40;;;;;;;2.80;2.57;;;;;1.60;97007.00;;;;5011090;28;20253;-58
2023/01/25 12:15:27;;;;;;;2.00;1.80;;;;;1.60;97008.00;;;;5032867;28;20628;-59
2023/01/25 12:18:14;;;;;;;4.23;2.40;;;;;1.50;96986.00;;;;5014408;28;20251;-58
2023/01/25 12:21:05;;;;;;;1.83;1.73;;;;;1.50;96984.00;;;;5014392;28;20214;-59
2023/01/25 12:23:47;;;;;;;1.50;1.43;;;;;1.50;96979.00;;;;5014103;28;20322;-58
2023/01/25 12:26:23;;;;;;;1.87;1.77;;;;;1.60;96966.00;;;;5030171;28;20210;-58
2023/01/25 12:28:57;;;;;;;2.30;2.13;;;;;1.50;96962.00;;;;5031187;28;20591;-58
2023/01/25 12:31:28;;;;;;;2.23;1.77;;;;;1.60;96958.00;;;;5014267;28;20203;-58
2023/01/25 12:34:00;;;;;;;3.50;2.73;;;;;1.60;96951.00;;;;5031920;28;20223;-58
2023/01/25 12:36:31;;;;;;;3.50;2.60;;;;;1.60;96943.00;;;;5031489;28;20196;-58
2023/01/25 12:39:05;;;;;;;10.40;3.33;;;;;1.60;96945.00;;;;5014523;28;20290;-58
2023/01/25 12:41:39;;;;;;;2.47;2.07;;;;;1.50;96945.00;;;;5031451;28;20196;-58